createdAt,value
2023-06-03T00:00:16.314Z,101043.00
2023-06-03T00:02:45.731Z,101045.63
2023-06-03T00:05:12.642Z,101026.09
2023-06-03T00:07:39.302Z,101032.28
2023-06-03T00:10:06.138Z,101050.63
2023-06-03T00:12:32.731Z,101041.31
2023-06-03T00:14:59.737Z,101027.28
2023-06-03T00:17:29.012Z,101041.22
2023-06-03T00:19:55.971Z,101037.75
2023-06-03T00:22:23.151Z,101012.94
2023-06-03T00:24:50.409Z,101000.44
2023-06-03T00:27:17.531Z,101022.56
2023-06-03T00:29:44.857Z,101038.56
2023-06-03T00:32:11.983Z,101033.09
2023-06-03T00:34:39.149Z,101035.00
2023-06-03T00:37:05.919Z,101014.31
2023-06-03T00:39:32.565Z,101010.16
2023-06-03T00:41:59.517Z,101032.16
2023-06-03T00:44:27.304Z,101018.16
2023-06-03T00:46:54.177Z,101019.81
2023-06-03T00:49:21.392Z,101026.38
2023-06-03T00:51:48.849Z,101027.34
2023-06-03T00:54:17.274Z,101017.72
2023-06-03T00:56:46.142Z,101012.00
2023-06-03T00:59:16.480Z,101021.88
2023-06-03T01:01:46.862Z,100995.38
2023-06-03T01:04:19.875Z,101009.06
2023-06-03T01:07:21.857Z,101021.56
2023-06-03T01:09:57.827Z,101028.13
2023-06-03T01:12:51.758Z,101038.72
2023-06-03T01:15:27.546Z,101017.41
2023-06-03T01:17:59.414Z,101019.41
2023-06-03T01:20:29.725Z,101027.28
2023-06-03T01:23:21.821Z,101024.88
2023-06-03T01:25:52.325Z,100999.50
2023-06-03T01:28:21.811Z,101009.91
2023-06-03T01:30:49.530Z,101000.78
2023-06-03T01:33:18.305Z,100995.78
2023-06-03T01:35:46.419Z,101008.03
2023-06-03T01:38:13.506Z,101021.16
2023-06-03T01:40:41.307Z,100999.78
2023-06-03T01:43:09.874Z,101012.88
2023-06-03T01:45:36.776Z,101025.47
2023-06-03T01:48:03.991Z,101008.44
2023-06-03T01:50:31.072Z,100997.38
2023-06-03T01:52:58.223Z,100982.97
2023-06-03T01:55:25.057Z,101015.47
2023-06-03T01:57:51.818Z,101025.84
2023-06-03T02:00:18.809Z,101001.00
2023-06-03T02:02:46.003Z,101002.38
2023-06-03T02:05:12.857Z,101010.56
2023-06-03T02:07:39.430Z,101030.88
2023-06-03T02:10:06.830Z,101001.66
2023-06-03T02:12:33.877Z,101004.81
2023-06-03T02:15:01.082Z,101000.50
2023-06-03T02:17:28.519Z,101001.94
2023-06-03T02:19:56.454Z,101015.56
2023-06-03T02:22:27.529Z,101013.38
2023-06-03T02:24:58.986Z,101003.28
2023-06-03T02:27:29.404Z,101003.88
2023-06-03T02:29:56.198Z,101002.06
2023-06-03T02:32:23.107Z,100994.97
2023-06-03T02:34:51.714Z,101014.88
2023-06-03T02:37:18.765Z,100988.44
2023-06-03T02:39:46.084Z,100993.91
2023-06-03T02:42:13.001Z,101010.00
2023-06-03T02:44:39.962Z,100987.94
2023-06-03T02:47:07.366Z,100992.13
2023-06-03T02:49:34.464Z,100995.91
2023-06-03T02:52:01.169Z,101005.66
2023-06-03T02:54:27.759Z,101022.81
2023-06-03T02:56:55.847Z,101025.41
2023-06-03T02:59:22.623Z,101015.50
2023-06-03T03:01:49.452Z,101030.41
2023-06-03T03:04:18.998Z,101028.00
2023-06-03T03:06:45.763Z,101025.03
2023-06-03T03:09:12.583Z,101026.19
2023-06-03T03:11:39.467Z,101038.03
2023-06-03T03:14:07.465Z,101009.66
2023-06-03T03:16:34.798Z,101030.69
2023-06-03T03:19:01.801Z,101041.53
2023-06-03T03:21:28.752Z,101020.75
2023-06-03T03:23:55.679Z,101018.16
2023-06-03T03:26:23.254Z,101022.66
2023-06-03T03:28:50.545Z,101025.78
2023-06-03T03:31:17.862Z,101037.09
2023-06-03T03:33:44.741Z,101040.78
2023-06-03T03:36:13.592Z,101049.97
2023-06-03T03:38:40.299Z,101041.25
2023-06-03T03:41:07.819Z,101037.16
2023-06-03T03:43:36.103Z,101048.84
2023-06-03T03:46:03.121Z,101044.13
2023-06-03T03:48:31.790Z,101049.16
2023-06-03T03:50:59.237Z,101058.56
2023-06-03T03:53:32.777Z,101022.91
2023-06-03T03:56:00.777Z,101021.22
2023-06-03T03:58:28.161Z,101057.50
2023-06-03T04:01:01.866Z,101049.03
2023-06-03T04:03:31.661Z,101058.13
2023-06-03T04:05:58.780Z,101047.44
2023-06-03T04:08:29.463Z,101061.84
2023-06-03T04:10:59.868Z,101051.34
2023-06-03T04:13:26.785Z,101053.69
2023-06-03T04:15:53.791Z,101049.88
2023-06-03T04:18:21.336Z,101006.03
2023-06-03T04:20:50.181Z,101049.91
2023-06-03T04:23:21.423Z,101018.34
2023-06-03T04:25:50.859Z,101048.38
2023-06-03T04:28:17.907Z,101028.00
2023-06-03T04:30:45.437Z,101056.06
2023-06-03T04:33:12.509Z,101013.75
2023-06-03T04:35:39.945Z,101031.53
2023-06-03T04:38:07.560Z,101041.56
2023-06-03T04:40:35.229Z,101020.84
2023-06-03T04:43:05.102Z,101040.13
2023-06-03T04:45:33.492Z,101060.41
2023-06-03T04:48:03.695Z,101059.78
2023-06-03T04:50:37.186Z,101062.91
2023-06-03T04:53:04.384Z,101033.00
2023-06-03T04:55:33.067Z,101022.88
2023-06-03T04:58:02.996Z,101049.41
2023-06-03T05:00:30.603Z,101029.66
2023-06-03T05:02:58.368Z,101027.03
2023-06-03T05:05:27.374Z,101050.91
2023-06-03T05:07:56.750Z,101064.59
2023-06-03T05:10:23.477Z,101054.78
2023-06-03T05:12:50.567Z,101051.94
2023-06-03T05:15:18.859Z,101062.38
2023-06-03T05:17:46.179Z,101057.81
2023-06-03T05:20:13.383Z,101062.09
2023-06-03T05:22:40.419Z,101058.97
2023-06-03T05:25:07.942Z,101055.81
2023-06-03T05:27:34.902Z,101042.69
2023-06-03T05:30:02.278Z,101040.63
2023-06-03T05:32:29.401Z,101041.28
2023-06-03T05:34:56.631Z,101050.78
2023-06-03T05:37:23.693Z,101035.22
2023-06-03T05:39:50.723Z,101042.38
2023-06-03T05:42:17.317Z,101059.78
2023-06-03T05:44:43.937Z,101065.34
2023-06-03T05:47:10.726Z,101054.47
2023-06-03T05:49:37.665Z,101043.69
2023-06-03T05:52:04.887Z,101040.84
2023-06-03T05:54:31.991Z,101053.25
2023-06-03T05:56:59.719Z,101055.63
2023-06-03T05:59:27.336Z,101026.34
2023-06-03T06:01:54.248Z,101049.25
2023-06-03T06:04:25.955Z,101045.78
2023-06-03T06:06:53.231Z,101015.69
2023-06-03T06:09:20.436Z,101054.03
2023-06-03T06:11:47.372Z,101037.22
2023-06-03T06:14:14.369Z,101031.50
2023-06-03T06:16:41.829Z,101048.69
2023-06-03T06:19:08.891Z,101012.88
2023-06-03T06:21:35.772Z,101029.09
2023-06-03T06:24:03.796Z,101039.13
2023-06-03T06:26:31.270Z,101010.44
2023-06-03T06:28:58.221Z,101044.16
2023-06-03T06:31:25.451Z,101039.59
2023-06-03T06:33:52.902Z,101058.25
2023-06-03T06:36:43.757Z,101048.22
2023-06-03T06:39:37.151Z,101059.38
2023-06-03T06:42:14.547Z,101063.63
2023-06-03T06:44:50.104Z,101030.50
2023-06-03T06:47:24.931Z,101054.56
2023-06-03T06:49:53.170Z,101012.81
2023-06-03T06:52:20.823Z,101054.88
2023-06-03T06:54:47.940Z,101044.13
2023-06-03T06:57:25.286Z,101052.50
2023-06-03T06:59:56.731Z,101034.28
2023-06-03T07:02:23.999Z,101026.00
2023-06-03T07:04:51.587Z,101054.88
2023-06-03T07:07:19.800Z,101064.81
2023-06-03T07:09:48.172Z,101024.97
2023-06-03T07:12:18.137Z,101071.47
2023-06-03T07:14:45.079Z,101039.97
2023-06-03T07:17:12.085Z,101041.63
2023-06-03T07:19:39.517Z,101024.50
2023-06-03T07:22:07.656Z,101022.84
2023-06-03T07:24:41.234Z,101035.03
2023-06-03T07:27:09.526Z,101028.38
2023-06-03T07:29:39.430Z,101037.25
2023-06-03T07:32:10.173Z,101044.16
2023-06-03T07:34:38.202Z,101024.53
2023-06-03T07:37:12.946Z,101016.78
2023-06-03T07:39:40.141Z,101054.66
2023-06-03T07:42:22.900Z,101056.03
2023-06-03T07:44:50.370Z,101025.06
2023-06-03T07:47:19.539Z,101038.34
2023-06-03T07:49:50.382Z,101028.69
2023-06-03T07:52:22.095Z,101038.31
2023-06-03T07:54:49.760Z,101057.09
2023-06-03T07:57:17.367Z,101030.03
2023-06-03T07:59:56.699Z,101037.22
2023-06-03T08:02:23.619Z,101042.22
2023-06-03T08:04:53.445Z,101039.97
2023-06-03T08:07:20.870Z,101044.44
2023-06-03T08:09:50.234Z,101048.28
2023-06-03T08:12:24.946Z,101025.06
2023-06-03T08:14:51.879Z,101031.69
2023-06-03T08:17:26.221Z,101010.06
2023-06-03T08:19:53.229Z,101016.41
2023-06-03T08:22:52.510Z,101049.50
2023-06-03T08:25:22.108Z,101022.63
2023-06-03T08:27:49.675Z,101022.63
2023-06-03T08:30:17.789Z,101040.19
2023-06-03T08:32:46.714Z,101014.47
2023-06-03T08:35:17.152Z,101039.03
2023-06-03T08:37:47.275Z,101015.22
2023-06-03T08:40:15.796Z,101022.84
2023-06-03T08:42:48.330Z,101019.53
2023-06-03T08:45:19.668Z,101012.22
2023-06-03T08:48:13.431Z,101046.00
2023-06-03T08:50:46.548Z,101021.09
2023-06-03T08:53:13.891Z,101046.13
2023-06-03T08:55:41.988Z,101012.59
2023-06-03T08:58:34.585Z,101021.47
2023-06-03T09:01:05.768Z,101018.69
2023-06-03T09:03:33.650Z,101020.63
2023-06-03T09:06:02.236Z,100999.47
2023-06-03T09:08:29.588Z,100999.50
2023-06-03T09:10:58.108Z,101014.53
2023-06-03T09:13:27.738Z,101018.19
2023-06-03T09:15:56.470Z,101016.41
2023-06-03T09:18:23.937Z,101034.16
2023-06-03T09:20:50.637Z,101044.97
2023-06-03T09:23:17.777Z,101034.28
2023-06-03T09:25:44.938Z,101031.97
2023-06-03T09:28:12.000Z,101026.56
2023-06-03T09:30:40.500Z,101023.31
2023-06-03T09:33:08.263Z,101027.47
2023-06-03T09:35:35.265Z,101028.13
2023-06-03T09:38:06.079Z,101030.19
2023-06-03T09:40:33.869Z,101029.06
2023-06-03T09:43:01.124Z,101029.31
2023-06-03T09:45:32.229Z,101028.97
2023-06-03T09:48:03.488Z,101022.31
2023-06-03T09:50:32.292Z,101029.97
2023-06-03T09:53:00.122Z,101027.38
2023-06-03T09:55:33.767Z,101028.72
2023-06-03T09:58:07.083Z,101011.66
2023-06-03T10:00:47.600Z,101020.75
2023-06-03T10:03:15.870Z,101010.72
2023-06-03T10:05:42.865Z,101021.63
2023-06-03T10:08:09.589Z,101006.56
2023-06-03T10:10:36.391Z,101017.03
2023-06-03T10:13:19.805Z,101024.97
2023-06-03T10:15:46.855Z,101013.69
2023-06-03T10:18:13.608Z,101017.97
2023-06-03T10:20:42.506Z,101014.28
2023-06-03T10:23:11.194Z,101004.69
2023-06-03T10:25:46.516Z,101015.69
2023-06-03T10:28:15.013Z,101004.28
2023-06-03T10:30:42.282Z,101012.00
2023-06-03T10:33:10.229Z,101006.78
2023-06-03T10:35:38.219Z,101003.66
2023-06-03T10:38:07.161Z,101002.56
2023-06-03T10:40:34.365Z,101006.88
2023-06-03T10:43:01.019Z,101000.03
2023-06-03T10:45:28.908Z,100995.03
2023-06-03T10:48:13.915Z,101008.69
2023-06-03T10:50:49.537Z,101009.03
2023-06-03T10:53:47.408Z,100999.50
2023-06-03T10:56:36.454Z,101016.16
2023-06-03T10:59:05.804Z,101009.78
2023-06-03T11:02:05.100Z,101017.34
2023-06-03T11:04:34.638Z,101000.25
2023-06-03T11:07:01.857Z,101006.50
2023-06-03T11:09:31.127Z,101007.31
2023-06-03T11:12:05.388Z,100996.59
2023-06-03T11:14:32.907Z,101007.75
2023-06-03T11:17:00.041Z,101010.41
2023-06-03T11:19:47.290Z,101004.78
2023-06-03T11:22:35.991Z,100995.88
2023-06-03T11:25:02.838Z,101002.00
2023-06-03T11:27:31.030Z,100996.88
2023-06-03T11:30:00.644Z,101002.13
2023-06-03T11:32:28.527Z,101006.81
2023-06-03T11:35:04.992Z,101014.97
2023-06-03T11:37:38.109Z,101009.53
2023-06-03T11:40:23.907Z,101006.16
2023-06-03T11:42:53.232Z,100999.69
2023-06-03T11:45:19.786Z,101004.44
2023-06-03T11:48:04.711Z,101000.81
2023-06-03T11:50:34.445Z,100988.69
2023-06-03T11:53:02.200Z,100990.66
2023-06-03T11:55:30.839Z,100990.88
2023-06-03T11:58:09.629Z,100990.88
2023-06-03T12:00:36.569Z,100983.34
2023-06-03T12:03:03.540Z,100993.28
2023-06-03T12:05:30.364Z,100985.69
2023-06-03T12:07:59.090Z,100966.78
2023-06-03T12:10:26.156Z,100969.22
2023-06-03T12:12:53.737Z,100959.91
2023-06-03T12:15:21.588Z,100966.28
2023-06-03T12:17:48.962Z,100958.34
2023-06-03T12:20:29.778Z,100974.69
2023-06-03T12:23:00.762Z,100958.66
2023-06-03T12:25:28.664Z,100959.75
2023-06-03T12:27:56.177Z,100972.47
2023-06-03T12:30:34.641Z,100967.78
2023-06-03T12:33:02.426Z,100962.41
2023-06-03T12:35:30.096Z,100959.69
2023-06-03T12:38:06.565Z,100963.47
2023-06-03T12:40:34.154Z,100974.88
2023-06-03T12:43:02.447Z,100960.66
2023-06-03T12:45:29.373Z,100962.81
2023-06-03T12:47:57.199Z,100960.91
2023-06-03T12:50:32.070Z,100966.91
2023-06-03T12:53:14.446Z,100961.69
2023-06-03T12:55:41.825Z,100948.28
2023-06-03T12:58:08.562Z,100948.03
2023-06-03T13:00:35.236Z,100946.13
2023-06-03T13:03:02.219Z,100948.50
2023-06-03T13:05:29.014Z,100943.19
2023-06-03T13:07:55.948Z,100948.41
2023-06-03T13:10:22.597Z,100955.66
2023-06-03T13:12:49.658Z,100946.22
2023-06-03T13:15:18.094Z,100937.88
2023-06-03T13:17:45.026Z,100933.41
2023-06-03T13:20:12.418Z,100940.88
2023-06-03T13:22:41.324Z,100939.50
2023-06-03T13:25:08.954Z,100925.84
2023-06-03T13:27:35.791Z,100923.66
2023-06-03T13:30:02.613Z,100929.94
2023-06-03T13:32:29.773Z,100937.91
2023-06-03T13:34:57.109Z,100926.31
2023-06-03T13:37:23.841Z,100934.63
2023-06-03T13:39:50.442Z,100939.19
2023-06-03T13:42:17.608Z,100931.94
2023-06-03T13:44:44.476Z,100938.25
2023-06-03T13:47:11.368Z,100937.97
2023-06-03T13:49:38.034Z,100936.94
2023-06-03T13:52:06.142Z,100932.72
2023-06-03T13:54:33.108Z,100918.34
2023-06-03T13:56:59.808Z,100927.63
2023-06-03T13:59:26.469Z,100916.69
2023-06-03T14:01:54.171Z,100914.53
2023-06-03T14:04:24.019Z,100916.97
2023-06-03T14:06:52.446Z,100909.72
2023-06-03T14:09:19.037Z,100920.94
2023-06-03T14:11:46.889Z,100917.09
2023-06-03T14:14:13.734Z,100917.91
2023-06-03T14:16:41.439Z,100904.81
2023-06-03T14:19:08.364Z,100906.19
2023-06-03T14:21:35.014Z,100901.75
2023-06-03T14:24:01.936Z,100902.22
2023-06-03T14:26:28.637Z,100899.22
2023-06-03T14:28:55.209Z,100890.31
2023-06-03T14:33:51.738Z,100895.91
2023-06-03T14:36:18.346Z,100890.53
2023-06-03T14:38:44.904Z,100885.13
2023-06-03T14:41:11.646Z,100884.34
2023-06-03T14:43:38.357Z,100890.16
2023-06-03T14:46:05.544Z,100875.22
2023-06-03T14:48:32.231Z,100872.94
2023-06-03T14:50:58.860Z,100878.53
2023-06-03T14:53:26.972Z,100878.88
2023-06-03T14:55:53.564Z,100873.72
2023-06-03T14:58:21.559Z,100863.94
2023-06-03T15:00:48.160Z,100867.53
2023-06-03T15:03:14.869Z,100866.28
2023-06-03T15:05:41.516Z,100866.03
2023-06-03T15:08:08.676Z,100858.28
2023-06-03T15:10:35.827Z,100861.13
2023-06-03T15:13:02.718Z,100862.91
2023-06-03T15:15:29.413Z,100853.97
2023-06-03T15:17:56.080Z,100855.59
2023-06-03T15:20:23.003Z,100843.59
2023-06-03T15:22:49.744Z,100846.09
2023-06-03T15:25:16.343Z,100857.56
2023-06-03T15:27:42.926Z,100862.50
2023-06-03T15:30:09.983Z,100856.91
2023-06-03T15:32:37.868Z,100857.41
2023-06-03T15:35:05.480Z,100855.41
2023-06-03T15:37:32.190Z,100856.09
2023-06-03T15:39:59.336Z,100845.22
2023-06-03T15:42:26.247Z,100846.22
2023-06-03T15:44:52.874Z,100850.06
2023-06-03T15:47:19.540Z,100839.41
2023-06-03T15:49:46.182Z,100841.31
2023-06-03T15:52:12.758Z,100843.91
2023-06-03T15:54:39.343Z,100845.06
2023-06-03T15:57:07.252Z,100843.13
2023-06-03T15:59:34.017Z,100843.25
2023-06-03T16:02:00.890Z,100839.97
2023-06-03T16:04:29.191Z,100847.22
2023-06-03T16:06:56.038Z,100840.16
2023-06-03T16:09:22.674Z,100835.72
2023-06-03T16:11:49.308Z,100842.81
2023-06-03T16:14:16.085Z,100840.03
2023-06-03T16:16:42.685Z,100841.69
2023-06-03T16:19:09.331Z,100839.03
2023-06-03T16:21:37.143Z,100835.72
2023-06-03T16:24:04.247Z,100832.84
2023-06-03T16:26:31.021Z,100837.59
2023-06-03T16:28:57.597Z,100830.25
2023-06-03T16:31:24.869Z,100830.91
2023-06-03T16:33:54.074Z,100829.78
2023-06-03T16:36:20.777Z,100832.88
2023-06-03T16:38:47.433Z,100835.75
2023-06-03T16:41:14.176Z,100840.22
2023-06-03T16:43:40.816Z,100821.34
2023-06-03T16:46:07.549Z,100832.38
2023-06-03T16:48:34.206Z,100831.13
2023-06-03T16:51:01.017Z,100833.44
2023-06-03T16:53:27.671Z,100828.69
2023-06-03T16:55:54.226Z,100834.78
2023-06-03T16:58:20.776Z,100834.47
2023-06-03T17:00:47.438Z,100839.75
2023-06-03T17:03:14.092Z,100843.34
2023-06-03T17:05:41.367Z,100842.06
2023-06-03T17:08:07.942Z,100846.34
2023-06-03T17:10:36.195Z,100837.13
2023-06-03T17:13:02.722Z,100847.81
2023-06-03T17:15:29.273Z,100841.41
2023-06-03T17:17:55.916Z,100843.03
2023-06-03T17:20:22.615Z,100841.19
2023-06-03T17:22:49.278Z,100844.94
2023-06-03T17:25:15.827Z,100840.00
2023-06-03T17:27:42.589Z,100844.91
2023-06-03T17:30:09.487Z,100839.28
2023-06-03T17:32:36.282Z,100838.41
2023-06-03T17:35:02.964Z,100836.69
2023-06-03T17:37:29.499Z,100834.50
2023-06-03T17:39:56.054Z,100836.75
2023-06-03T17:42:22.633Z,100831.72
2023-06-03T17:44:50.856Z,100841.03
2023-06-03T17:47:17.552Z,100835.53
2023-06-03T17:49:50.725Z,100835.59
2023-06-03T17:52:17.363Z,100841.47
2023-06-03T17:54:43.903Z,100841.19
2023-06-03T17:57:11.420Z,100835.22
2023-06-03T17:59:38.020Z,100838.78
2023-06-03T18:02:05.030Z,100837.34
2023-06-03T18:04:31.754Z,100838.41
2023-06-03T18:06:58.368Z,100834.28
2023-06-03T18:09:25.083Z,100844.22
2023-06-03T18:11:51.746Z,100852.38
2023-06-03T18:14:18.309Z,100855.75
2023-06-03T18:16:44.882Z,100851.03
2023-06-03T18:19:11.538Z,100852.88
2023-06-03T18:21:41.512Z,100858.22
2023-06-03T18:24:08.127Z,100858.63
2023-06-03T18:26:34.783Z,100864.81
2023-06-03T18:29:01.617Z,100854.53
2023-06-03T18:31:28.226Z,100866.78
2023-06-03T18:33:54.817Z,100873.88
2023-06-03T18:36:21.464Z,100865.41
2023-06-03T18:38:48.023Z,100866.84
2023-06-03T18:41:14.670Z,100865.59
2023-06-03T18:43:42.673Z,100862.91
2023-06-03T18:46:09.598Z,100865.53
2023-06-03T18:48:36.254Z,100872.53
2023-06-03T18:51:02.831Z,100869.41
2023-06-03T18:53:29.414Z,100872.25
2023-06-03T18:55:56.060Z,100879.03
2023-06-03T18:58:22.627Z,100879.41
2023-06-03T19:00:51.796Z,100887.81
2023-06-03T19:03:27.484Z,100886.56
2023-06-03T19:05:55.612Z,100886.09
2023-06-03T19:08:23.287Z,100888.50
2023-06-03T19:10:50.466Z,100897.72
2023-06-03T19:13:18.124Z,100893.44
2023-06-03T19:15:45.473Z,100899.88
2023-06-03T19:18:13.668Z,100899.44
2023-06-03T19:20:40.522Z,100906.16
2023-06-03T19:23:07.397Z,100907.94
2023-06-03T19:25:35.132Z,100910.75
2023-06-03T19:28:01.731Z,100908.63
2023-06-03T19:30:28.353Z,100917.81
2023-06-03T19:32:55.409Z,100912.97
2023-06-03T19:35:22.283Z,100922.44
2023-06-03T19:37:48.851Z,100928.31
2023-06-03T19:40:15.583Z,100926.78
2023-06-03T19:42:42.112Z,100935.16
2023-06-03T19:45:09.011Z,100937.69
2023-06-03T19:47:35.672Z,100937.19
2023-06-03T19:50:02.432Z,100934.84
2023-06-03T19:52:29.755Z,100942.59
2023-06-03T19:54:57.255Z,100955.94
2023-06-03T19:57:23.809Z,100955.97
2023-06-03T19:59:50.480Z,100949.09
2023-06-03T20:02:17.126Z,100948.34
2023-06-03T20:04:43.792Z,100953.66
2023-06-03T20:07:11.933Z,100959.06
2023-06-03T20:09:38.527Z,100964.38
2023-06-03T20:12:05.281Z,100963.03
2023-06-03T20:14:31.823Z,100964.44
2023-06-03T20:16:58.517Z,100963.66
2023-06-03T20:19:25.765Z,100971.41
2023-06-03T20:21:52.311Z,100975.81
2023-06-03T20:24:18.867Z,100973.66
2023-06-03T20:26:46.528Z,100986.94
2023-06-03T20:29:13.298Z,100975.06
2023-06-03T20:31:40.040Z,100972.59
2023-06-03T20:34:06.627Z,100969.53
2023-06-03T20:36:33.894Z,100970.38
2023-06-03T20:39:00.608Z,100977.81
2023-06-03T20:41:28.266Z,100975.59
2023-06-03T20:43:55.695Z,100986.41
2023-06-03T20:46:22.464Z,100982.50
2023-06-03T20:48:49.041Z,100991.06
2023-06-03T20:51:15.619Z,100982.44
2023-06-03T20:53:42.184Z,101002.31
2023-06-03T20:56:08.723Z,101005.38
2023-06-03T20:58:35.288Z,101002.81
2023-06-03T21:01:01.837Z,101012.19
2023-06-03T21:03:28.548Z,101002.78
2023-06-03T21:05:55.614Z,100997.53
2023-06-03T21:08:22.251Z,101006.03
2023-06-03T21:10:48.838Z,101003.28
2023-06-03T21:13:16.205Z,101002.75
2023-06-03T21:15:42.759Z,101009.06
2023-06-03T21:18:09.349Z,101002.72
2023-06-03T21:20:36.010Z,101007.09
2023-06-03T21:23:02.591Z,101010.91
2023-06-03T21:25:29.347Z,101012.28
2023-06-03T21:27:55.912Z,101005.25
2023-06-03T21:30:22.859Z,101017.34
2023-06-03T21:32:49.535Z,101003.22
2023-06-03T21:35:16.212Z,101013.06
2023-06-03T21:37:42.781Z,101015.59
2023-06-03T21:40:10.556Z,101021.41
2023-06-03T21:42:37.127Z,101022.47
2023-06-03T21:45:04.006Z,101024.41
2023-06-03T21:47:30.580Z,101024.72
2023-06-03T21:49:57.196Z,101033.78
2023-06-03T21:52:23.752Z,101026.13
2023-06-03T21:54:50.564Z,101027.22
2023-06-03T21:57:17.120Z,101028.28
2023-06-03T21:59:43.684Z,101026.91
2023-06-03T22:02:10.418Z,101020.41
2023-06-03T22:04:37.234Z,101019.28
2023-06-03T22:07:03.892Z,101030.81
2023-06-03T22:09:30.495Z,101036.28
2023-06-03T22:11:57.077Z,101030.75
2023-06-03T22:14:23.694Z,101030.22
2023-06-03T22:16:50.346Z,101033.94
2023-06-03T22:19:16.999Z,101024.97
2023-06-03T22:21:44.511Z,101033.16
2023-06-03T22:24:11.248Z,101038.38
2023-06-03T22:26:37.803Z,101030.22
2023-06-03T22:29:04.255Z,101040.19
2023-06-03T22:31:30.899Z,101043.47
2023-06-03T22:33:57.518Z,101044.63
2023-06-03T22:36:24.014Z,101038.25
2023-06-03T22:38:50.558Z,101045.78
2023-06-03T22:41:17.119Z,101038.50
2023-06-03T22:43:44.296Z,101039.88
2023-06-03T22:46:11.059Z,101039.88
2023-06-03T22:48:37.669Z,101026.06
2023-06-03T22:51:07.415Z,101046.00
2023-06-03T22:53:34.346Z,101033.34
2023-06-03T22:56:02.375Z,101043.84
2023-06-03T22:58:28.948Z,101057.66
2023-06-03T23:00:55.482Z,101055.97
2023-06-03T23:03:22.217Z,101038.19
2023-06-03T23:05:48.987Z,101048.06
2023-06-03T23:08:15.762Z,101044.13
2023-06-03T23:10:42.411Z,101052.75
2023-06-03T23:13:09.011Z,101038.88
2023-06-03T23:15:35.717Z,101060.94
2023-06-03T23:18:02.312Z,101054.78
2023-06-03T23:20:29.807Z,101052.50
2023-06-03T23:22:56.455Z,101045.59
2023-06-03T23:25:23.095Z,101050.94
2023-06-03T23:27:50.434Z,101051.69
2023-06-03T23:30:17.240Z,101037.34
2023-06-03T23:32:44.496Z,101050.03
2023-06-03T23:35:11.896Z,101042.91
2023-06-03T23:37:44.685Z,101046.28
2023-06-03T23:40:12.395Z,101043.72
2023-06-03T23:42:39.464Z,101051.94
2023-06-03T23:45:06.740Z,101052.69
2023-06-03T23:47:33.412Z,101047.84
2023-06-03T23:50:01.879Z,101033.53
2023-06-03T23:52:28.713Z,101040.31
2023-06-03T23:54:56.553Z,101047.00
2023-06-03T23:57:23.838Z,101042.97
2023-06-03T23:59:50.602Z,101037.28
